Time;durP1;ratioP1;P1;durP2;ratioP2;P2;SDS_P1;SDS_P2;PMS_P1;PMS_P2;Temp;Humidity;BMP_temperature;BMP_pressure;BME280_temperature;BME280_humidity;BME280_pressure;Samples;Min_cycle;Max_cycle;Signal;HPM_P1;HPM_P2
2021/07/22 00:00:37;;;;;;;17.20;10.38;;;;;;;;;;5035593;28;20028;-66
2021/07/22 00:03:03;;;;;;;17.90;10.80;;;;;;;;;;5035471;28;20160;-66
2021/07/22 00:05:29;;;;;;;13.18;10.48;;;;;;;;;;5036800;28;20056;-66
2021/07/22 00:08:02;;;;;;;17.27;11.00;;;;;;;;;;5036745;28;20025;-66
2021/07/22 00:10:28;;;;;;;18.92;10.45;;;;;;;;;;5036730;28;20018;-66
2021/07/22 00:12:55;;;;;;;16.45;9.65;;;;;;;;;;5035404;28;20493;-66
2021/07/22 00:15:21;;;;;;;11.60;9.55;;;;;;;;;;5036624;28;20053;-64
2021/07/22 00:17:47;;;;;;;15.93;10.07;;;;;;;;;;5036282;28;20386;-66
2021/07/22 00:20:13;;;;;;;15.93;10.02;;;;;;;;;;5036637;28;20025;-66
2021/07/22 00:22:39;;;;;;;13.20;9.63;;;;;;;;;;5036416;28;20138;-65
2021/07/22 00:25:07;;;;;;;16.25;9.63;;;;;;;;;;5035225;28;20033;-65
2021/07/22 00:27:33;;;;;;;16.65;10.02;;;;;;;;;;5035956;28;20049;-66
2021/07/22 00:29:59;;;;;;;13.82;9.63;;;;;;;;;;5035368;28;20432;-66
2021/07/22 00:32:25;;;;;;;14.68;9.23;;;;;;;;;;5036333;28;20029;-66
2021/07/22 00:34:51;;;;;;;14.88;10.75;;;;;;;;;;5036336;28;20095;-65
2021/07/22 00:37:18;;;;;;;15.48;10.23;;;;;;;;;;5035955;28;20104;-65
2021/07/22 00:39:44;;;;;;;15.80;9.43;;;;;;;;;;5036213;28;20119;-67
2021/07/22 00:42:10;;;;;;;13.68;9.38;;;;;;;;;;5036089;28;20033;-65
2021/07/22 00:44:36;;;;;;;14.18;9.35;;;;;;;;;;5036095;28;20029;-66
2021/07/22 00:47:03;;;;;;;13.65;9.15;;;;;;;;;;5036059;28;20060;-66
2021/07/22 00:49:29;;;;;;;15.65;10.07;;;;;;;;;;5036009;28;20124;-65
2021/07/22 00:51:55;;;;;;;14.38;9.27;;;;;;;;;;5036040;28;20025;-66
2021/07/22 00:54:21;;;;;;;12.02;8.63;;;;;;;;;;5036189;28;20108;-65
2021/07/22 00:56:48;;;;;;;15.27;9.88;;;;;;;;;;5034753;28;20022;-66
2021/07/22 00:59:14;;;;;;;12.77;9.23;;;;;;;;;;5035851;28;20025;-68
2021/07/22 01:01:40;;;;;;;14.25;10.32;;;;;;;;;;5035778;28;20029;-67
2021/07/22 01:04:06;;;;;;;13.95;9.07;;;;;;;;;;5035764;28;20025;-67
2021/07/22 01:06:33;;;;;;;11.48;9.07;;;;;;;;;;5034398;28;20063;-67
2021/07/22 01:08:59;;;;;;;12.82;9.38;;;;;;;;;;5035700;28;20600;-65
2021/07/22 01:11:25;;;;;;;13.60;9.15;;;;;;;;;;5034403;28;20026;-66
2021/07/22 01:13:51;;;;;;;14.32;9.18;;;;;;;;;;5035542;28;20017;-66
2021/07/22 01:16:18;;;;;;;12.60;8.60;;;;;;;;;;5035544;28;20043;-65
2021/07/22 01:18:44;;;;;;;14.68;9.02;;;;;;;;;;5033880;28;20112;-68
2021/07/22 01:21:11;;;;;;;12.23;9.43;;;;;;;;;;5035502;28;20112;-67
2021/07/22 01:23:37;;;;;;;12.32;8.65;;;;;;;;;;5035302;28;20021;-65
2021/07/22 01:26:03;;;;;;;13.30;9.15;;;;;;;;;;5035314;28;20033;-65
2021/07/22 01:28:29;;;;;;;11.20;8.32;;;;;;;;;;5033510;28;20661;-65
2021/07/22 01:30:56;;;;;;;14.10;10.02;;;;;;;;;;5035346;28;20025;-66
2021/07/22 01:33:22;;;;;;;15.43;9.27;;;;;;;;;;5035185;28;20037;-66
2021/07/22 01:35:48;;;;;;;13.52;9.18;;;;;;;;;;5035132;28;20075;-65
2021/07/22 01:38:14;;;;;;;14.07;9.60;;;;;;;;;;5035110;28;20032;-64
2021/07/22 01:40:40;;;;;;;12.73;9.10;;;;;;;;;;5034853;28;20057;-66
2021/07/22 01:43:07;;;;;;;13.80;9.10;;;;;;;;;;5034972;28;20029;-65
2021/07/22 01:45:33;;;;;;;11.85;8.10;;;;;;;;;;5034654;28;20378;-68
2021/07/22 01:47:59;;;;;;;12.55;8.90;;;;;;;;;;5034928;28;20128;-64
2021/07/22 01:50:26;;;;;;;13.80;9.10;;;;;;;;;;5034948;28;20462;-66
2021/07/22 01:52:52;;;;;;;14.13;9.35;;;;;;;;;;5034824;28;20040;-65
2021/07/22 01:55:18;;;;;;;14.82;9.00;;;;;;;;;;5033511;28;20025;-64
2021/07/22 01:57:44;;;;;;;13.77;9.50;;;;;;;;;;5033409;28;20120;-64
2021/07/22 02:00:11;;;;;;;13.50;8.73;;;;;;;;;;5034773;28;20026;-65
2021/07/22 02:02:37;;;;;;;11.77;8.85;;;;;;;;;;5034721;28;20108;-64
2021/07/22 02:05:03;;;;;;;10.20;8.77;;;;;;;;;;5034672;28;20033;-65
2021/07/22 02:07:29;;;;;;;15.00;8.85;;;;;;;;;;5034683;28;20033;-66
2021/07/22 02:09:56;;;;;;;14.02;9.07;;;;;;;;;;5034722;28;20025;-66
2021/07/22 02:12:22;;;;;;;13.90;8.32;;;;;;;;;;5033189;28;20053;-66
2021/07/22 02:14:51;;;;;;;12.57;8.98;;;;;;;;;;5034426;28;20060;-64
2021/07/22 02:17:19;;;;;;;18.65;8.75;;;;;;;;;;5034375;28;20044;-64
2021/07/22 02:19:45;;;;;;;13.57;8.93;;;;;;;;;;5034289;28;20028;-64
2021/07/22 02:22:14;;;;;;;13.75;8.98;;;;;;;;;;5034250;28;20424;-66
2021/07/22 02:24:40;;;;;;;18.20;9.18;;;;;;;;;;5032887;28;20037;-66
2021/07/22 02:27:06;;;;;;;14.15;8.70;;;;;;;;;;5032525;28;20449;-65
2021/07/22 02:29:33;;;;;;;17.38;9.13;;;;;;;;;;5032903;28;20096;-65
2021/07/22 02:31:59;;;;;;;15.88;10.07;;;;;;;;;;5034168;28;20060;-67
2021/07/22 02:34:25;;;;;;;13.90;9.60;;;;;;;;;;5033998;28;20032;-65
2021/07/22 02:36:51;;;;;;;14.82;9.13;;;;;;;;;;5033999;28;20057;-67
2021/07/22 02:39:17;;;;;;;20.13;9.93;;;;;;;;;;5033941;28;20525;-66
2021/07/22 02:41:43;;;;;;;15.57;8.63;;;;;;;;;;5032555;28;20067;-64
2021/07/22 02:44:10;;;;;;;17.20;9.15;;;;;;;;;;5033895;28;20108;-66
2021/07/22 02:46:36;;;;;;;17.90;8.70;;;;;;;;;;5032491;28;20050;-64
2021/07/22 02:49:02;;;;;;;14.00;9.27;;;;;;;;;;5033761;28;20033;-67
2021/07/22 02:51:28;;;;;;;12.95;8.70;;;;;;;;;;5033825;28;20105;-65
2021/07/22 02:53:55;;;;;;;14.75;9.77;;;;;;;;;;5032333;28;20128;-66
2021/07/22 02:56:21;;;;;;;15.43;8.68;;;;;;;;;;5032350;28;20025;-66
2021/07/22 02:58:47;;;;;;;14.48;9.23;;;;;;;;;;5033294;28;20430;-66
2021/07/22 03:01:13;;;;;;;14.68;8.82;;;;;;;;;;5033913;28;20033;-67
2021/07/22 03:03:39;;;;;;;13.60;9.35;;;;;;;;;;5033460;28;20358;-65
2021/07/22 03:06:06;;;;;;;12.45;8.93;;;;;;;;;;5033491;28;20064;-67
2021/07/22 03:08:32;;;;;;;13.13;9.13;;;;;;;;;;5032090;28;20029;-66
2021/07/22 03:10:59;;;;;;;14.48;9.93;;;;;;;;;;5033481;28;20033;-66
2021/07/22 03:13:25;;;;;;;16.50;9.98;;;;;;;;;;5033372;28;20103;-65
2021/07/22 03:15:51;;;;;;;18.23;9.65;;;;;;;;;;5032025;28;20022;-67
2021/07/22 03:18:17;;;;;;;18.08;10.20;;;;;;;;;;5033328;28;20057;-66
2021/07/22 03:20:43;;;;;;;14.27;9.90;;;;;;;;;;5031440;28;20112;-67
2021/07/22 03:23:10;;;;;;;15.55;10.43;;;;;;;;;;5033167;28;20035;-67
2021/07/22 03:25:37;;;;;;;17.42;10.68;;;;;;;;;;5033132;28;20496;-67
2021/07/22 03:28:04;;;;;;;22.58;12.20;;;;;;;;;;5032783;28;20068;-67
2021/07/22 03:30:31;;;;;;;20.45;12.32;;;;;;;;;;5033151;28;20021;-64
2021/07/22 03:32:57;;;;;;;18.90;12.85;;;;;;;;;;5033441;28;20117;-65
2021/07/22 03:35:23;;;;;;;22.27;10.98;;;;;;;;;;5031777;28;20121;-66
2021/07/22 03:37:49;;;;;;;13.55;9.80;;;;;;;;;;5033088;28;20104;-67
2021/07/22 03:40:16;;;;;;;13.90;10.43;;;;;;;;;;5033069;28;20132;-66
2021/07/22 03:42:42;;;;;;;16.23;10.05;;;;;;;;;;5031646;28;20481;-68
2021/07/22 03:45:09;;;;;;;17.05;10.40;;;;;;;;;;5033017;28;20034;-66
2021/07/22 03:47:35;;;;;;;17.55;12.15;;;;;;;;;;5032925;28;20029;-68
2021/07/22 03:50:02;;;;;;;26.08;14.57;;;;;;;;;;5031634;28;20103;-68
2021/07/22 03:52:29;;;;;;;25.52;14.27;;;;;;;;;;5033019;28;20026;-65
2021/07/22 03:54:55;;;;;;;22.42;14.88;;;;;;;;;;5033164;28;20529;-68
2021/07/22 03:57:21;;;;;;;22.05;13.23;;;;;;;;;;5032893;28;20029;-68
2021/07/22 03:59:47;;;;;;;18.20;10.88;;;;;;;;;;5031231;28;20028;-68
2021/07/22 04:02:13;;;;;;;16.33;11.23;;;;;;;;;;5032798;28;20074;-66
2021/07/22 04:04:40;;;;;;;20.50;11.25;;;;;;;;;;5032865;28;20502;-69
2021/07/22 04:07:06;;;;;;;20.27;11.13;;;;;;;;;;5032852;28;20076;-69
2021/07/22 04:09:34;;;;;;;17.15;10.20;;;;;;;;;;5032505;28;20580;-67
2021/07/22 04:12:00;;;;;;;14.90;9.98;;;;;;;;;;5032814;28;20080;-69
2021/07/22 04:14:27;;;;;;;13.25;10.20;;;;;;;;;;5032733;28;20053;-67
2021/07/22 04:16:53;;;;;;;13.00;10.10;;;;;;;;;;5032693;28;20026;-68
2021/07/22 04:19:19;;;;;;;16.85;10.50;;;;;;;;;;5031383;28;20112;-66
2021/07/22 04:21:46;;;;;;;16.38;11.50;;;;;;;;;;5032601;28;20105;-68
2021/07/22 04:24:12;;;;;;;21.13;11.10;;;;;;;;;;5032643;28;20061;-67
2021/07/22 04:26:38;;;;;;;22.42;10.70;;;;;;;;;;5032383;28;20022;-66
2021/07/22 04:29:04;;;;;;;17.17;10.65;;;;;;;;;;5032827;28;20144;-66
2021/07/22 04:31:31;;;;;;;21.35;10.10;;;;;;;;;;5034359;28;20152;-65
2021/07/22 04:33:57;;;;;;;16.23;10.32;;;;;;;;;;5036318;28;20057;-63
2021/07/22 04:36:23;;;;;;;15.50;9.27;;;;;;;;;;5036295;28;20021;-65
2021/07/22 04:38:49;;;;;;;12.40;9.30;;;;;;;;;;5036205;28;20026;-64
2021/07/22 04:41:16;;;;;;;11.98;8.68;;;;;;;;;;5036505;28;20155;-66
2021/07/22 04:43:42;;;;;;;15.00;9.75;;;;;;;;;;5036071;28;20026;-66
2021/07/22 04:46:08;;;;;;;15.55;9.25;;;;;;;;;;5036093;28;20036;-66
2021/07/22 04:48:34;;;;;;;13.13;8.55;;;;;;;;;;5035871;28;20060;-66
2021/07/22 04:51:05;;;;;;;16.92;9.40;;;;;;;;;;5034638;28;20111;-67
2021/07/22 04:53:32;;;;;;;12.85;8.82;;;;;;;;;;5036024;28;20022;-66
2021/07/22 04:55:58;;;;;;;12.85;8.57;;;;;;;;;;5035917;28;20026;-65
2021/07/22 04:58:25;;;;;;;13.05;8.77;;;;;;;;;;5035601;28;20418;-67
2021/07/22 05:00:53;;;;;;;15.32;9.25;;;;;;;;;;5035772;28;20029;-65
2021/07/22 05:03:20;;;;;;;11.65;8.40;;;;;;;;;;5035757;28;20084;-65
2021/07/22 05:05:46;;;;;;;15.05;9.13;;;;;;;;;;5035758;28;20064;-66
2021/07/22 05:08:12;;;;;;;10.82;8.75;;;;;;;;;;5035668;28;20381;-66
2021/07/22 05:10:39;;;;;;;19.27;9.20;;;;;;;;;;5035632;28;20477;-64
2021/07/22 05:13:06;;;;;;;15.05;9.20;;;;;;;;;;5035669;28;20113;-64
2021/07/22 05:15:32;;;;;;;16.77;9.52;;;;;;;;;;5035569;28;20064;-67
2021/07/22 05:17:58;;;;;;;15.02;9.00;;;;;;;;;;5035516;28;20108;-66
2021/07/22 05:20:25;;;;;;;15.35;8.82;;;;;;;;;;5035174;28;20100;-65
2021/07/22 05:22:51;;;;;;;14.48;8.88;;;;;;;;;;5035420;28;20033;-65
2021/07/22 05:25:17;;;;;;;12.40;8.65;;;;;;;;;;5034040;28;20112;-65
2021/07/22 05:27:43;;;;;;;13.63;8.93;;;;;;;;;;5035020;28;20100;-63
2021/07/22 05:30:10;;;;;;;16.00;8.82;;;;;;;;;;5035343;28;20117;-65
2021/07/22 05:32:36;;;;;;;19.33;9.25;;;;;;;;;;5033914;28;20044;-65
2021/07/22 05:35:02;;;;;;;15.68;9.18;;;;;;;;;;5034899;28;20030;-67
2021/07/22 05:37:28;;;;;;;13.88;9.60;;;;;;;;;;5034278;28;20032;-65
2021/07/22 05:39:54;;;;;;;12.80;8.52;;;;;;;;;;5034668;28;20109;-66
2021/07/22 05:42:21;;;;;;;13.13;9.20;;;;;;;;;;5034245;28;20121;-64
2021/07/22 05:44:47;;;;;;;17.20;9.10;;;;;;;;;;5034287;28;20022;-64
2021/07/22 05:47:13;;;;;;;11.32;9.52;;;;;;;;;;5033259;28;20026;-64
2021/07/22 05:49:39;;;;;;;13.40;8.93;;;;;;;;;;5034871;28;20083;-67
2021/07/22 05:52:06;;;;;;;13.25;9.00;;;;;;;;;;5033481;28;20120;-64
2021/07/22 05:54:32;;;;;;;14.43;10.57;;;;;;;;;;5033208;28;20052;-65
2021/07/22 05:56:58;;;;;;;16.40;9.57;;;;;;;;;;5033421;28;20060;-65
2021/07/22 05:59:24;;;;;;;13.40;9.30;;;;;;;;;;5034685;28;20550;-65
2021/07/22 06:01:50;;;;;;;16.20;8.98;;;;;;;;;;5033284;28;20053;-66
2021/07/22 06:04:16;;;;;;;16.50;9.50;;;;;;;;;;5034654;28;20026;-66
2021/07/22 06:06:43;;;;;;;16.45;9.70;;;;;;;;;;5033295;28;20060;-66
2021/07/22 06:09:10;;;;;;;11.88;9.57;;;;;;;;;;5034528;28;20076;-67
2021/07/22 06:11:36;;;;;;;17.98;8.93;;;;;;;;;;5033173;28;20067;-67
2021/07/22 06:14:02;;;;;;;12.82;9.02;;;;;;;;;;5034464;28;20026;-67
2021/07/22 06:16:30;;;;;;;15.52;9.40;;;;;;;;;;5034388;28;20112;-65
2021/07/22 06:18:56;;;;;;;14.13;9.25;;;;;;;;;;5034385;28;20143;-65
2021/07/22 06:21:23;;;;;;;21.08;9.32;;;;;;;;;;5034283;28;20017;-67
2021/07/22 06:23:49;;;;;;;16.02;9.18;;;;;;;;;;5032724;28;20121;-68
2021/07/22 06:26:15;;;;;;;12.70;8.88;;;;;;;;;;5034234;28;20026;-67
2021/07/22 06:28:41;;;;;;;13.10;8.70;;;;;;;;;;5032415;28;20053;-68
2021/07/22 06:31:08;;;;;;;11.23;8.90;;;;;;;;;;5032791;28;20044;-67
2021/07/22 06:33:34;;;;;;;10.63;8.13;;;;;;;;;;5034120;28;20037;-67
2021/07/22 06:36:00;;;;;;;15.30;9.90;;;;;;;;;;5033994;28;20037;-67
2021/07/22 06:38:29;;;;;;;15.85;9.18;;;;;;;;;;5032697;28;20053;-66
2021/07/22 06:40:56;;;;;;;11.95;8.35;;;;;;;;;;5033821;28;20079;-68
2021/07/22 06:43:22;;;;;;;12.30;9.02;;;;;;;;;;5034153;28;20029;-66
2021/07/22 06:45:48;;;;;;;11.98;8.13;;;;;;;;;;5032174;28;20022;-66
2021/07/22 06:48:15;;;;;;;14.02;9.05;;;;;;;;;;5032506;28;20382;-68
2021/07/22 06:50:41;;;;;;;13.18;9.00;;;;;;;;;;5033684;28;20119;-68
2021/07/22 06:53:07;;;;;;;14.45;8.18;;;;;;;;;;5034013;28;20061;-66
2021/07/22 06:55:34;;;;;;;12.18;8.60;;;;;;;;;;5033121;28;20104;-65
2021/07/22 06:58:04;;;;;;;12.65;8.30;;;;;;;;;;5033599;28;20021;-67
2021/07/22 07:00:30;;;;;;;15.48;8.52;;;;;;;;;;5033785;28;20055;-64
2021/07/22 07:02:56;;;;;;;13.43;8.77;;;;;;;;;;5032165;28;20044;-65
2021/07/22 07:05:22;;;;;;;12.07;8.13;;;;;;;;;;5033143;28;20430;-64
2021/07/22 07:07:48;;;;;;;13.13;8.57;;;;;;;;;;5033525;28;20454;-67
2021/07/22 07:10:15;;;;;;;14.30;8.95;;;;;;;;;;5037744;28;20435;-70
2021/07/22 07:12:41;;;;;;;10.82;8.27;;;;;;;;;;5051704;28;20032;-67
2021/07/22 07:15:08;;;;;;;13.38;8.90;;;;;;;;;;5052778;28;20112;-68
2021/07/22 07:17:34;;;;;;;14.93;8.27;;;;;;;;;;5051729;28;20373;-68
2021/07/22 07:20:00;;;;;;;15.52;8.30;;;;;;;;;;5053072;28;20021;-65
2021/07/22 07:22:26;;;;;;;17.40;8.82;;;;;;;;;;5052744;28;20029;-68
2021/07/22 07:24:52;;;;;;;16.42;8.50;;;;;;;;;;5053143;28;20178;-66
2021/07/22 07:27:19;;;;;;;16.48;10.05;;;;;;;;;;5052732;28;20106;-67
2021/07/22 07:29:45;;;;;;;12.75;7.15;;;;;;;;;;5052420;28;20103;-68
2021/07/22 07:32:11;;;;;;;15.23;8.15;;;;;;;;;;5052824;28;20049;-66
2021/07/22 07:34:37;;;;;;;14.45;8.32;;;;;;;;;;5052626;28;20532;-64
2021/07/22 07:37:03;;;;;;;14.38;7.95;;;;;;;;;;5052657;28;20024;-66
2021/07/22 07:39:30;;;;;;;14.98;8.32;;;;;;;;;;5052369;28;20021;-66
2021/07/22 07:41:56;;;;;;;12.55;8.18;;;;;;;;;;5052676;28;20036;-68
2021/07/22 07:44:22;;;;;;;13.20;7.28;;;;;;;;;;5052803;28;20037;-66
2021/07/22 07:46:49;;;;;;;19.55;8.48;;;;;;;;;;5052759;28;20029;-68
2021/07/22 07:49:15;;;;;;;16.15;8.48;;;;;;;;;;5052677;28;20021;-65
2021/07/22 07:51:41;;;;;;;14.23;7.78;;;;;;;;;;5052667;28;20496;-66
2021/07/22 07:54:07;;;;;;;16.35;10.13;;;;;;;;;;5052657;28;20462;-66
2021/07/22 07:56:33;;;;;;;17.15;8.65;;;;;;;;;;5052789;28;20025;-65
2021/07/22 07:59:00;;;;;;;14.05;8.95;;;;;;;;;;5052734;28;20021;-65
2021/07/22 08:01:29;;;;;;;15.38;8.05;;;;;;;;;;5051286;28;20442;-65
2021/07/22 08:03:55;;;;;;;13.98;8.05;;;;;;;;;;5052610;28;20075;-66
2021/07/22 08:06:21;;;;;;;10.65;7.10;;;;;;;;;;5053988;28;20063;-68
2021/07/22 08:08:48;;;;;;;13.32;7.32;;;;;;;;;;5056647;28;20104;-67
2021/07/22 08:11:14;;;;;;;12.90;7.60;;;;;;;;;;5056478;28;20056;-68
2021/07/22 08:13:40;;;;;;;13.43;7.80;;;;;;;;;;5056443;28;20532;-68
2021/07/22 08:16:07;;;;;;;12.35;7.43;;;;;;;;;;5056224;28;20104;-69
2021/07/22 08:18:33;;;;;;;12.95;8.05;;;;;;;;;;5056452;28;20377;-66
2021/07/22 08:20:59;;;;;;;9.50;6.97;;;;;;;;;;5056547;28;20092;-68
2021/07/22 08:23:25;;;;;;;11.45;7.68;;;;;;;;;;5056357;28;20033;-66
2021/07/22 08:25:52;;;;;;;16.08;9.85;;;;;;;;;;5056144;28;20029;-67
2021/07/22 08:28:18;;;;;;;27.00;9.80;;;;;;;;;;5054605;28;20053;-68
2021/07/22 08:30:44;;;;;;;11.15;7.25;;;;;;;;;;5056063;28;20497;-69
2021/07/22 08:33:10;;;;;;;10.15;6.75;;;;;;;;;;5056273;28;20180;-66
2021/07/22 08:35:37;;;;;;;10.57;7.07;;;;;;;;;;5056255;28;20059;-66
2021/07/22 08:38:03;;;;;;;11.75;6.10;;;;;;;;;;5056196;28;20013;-68
2021/07/22 08:40:29;;;;;;;13.05;6.65;;;;;;;;;;5056425;28;20059;-65
2021/07/22 08:42:59;;;;;;;8.90;6.40;;;;;;;;;;5056171;28;20025;-65
2021/07/22 08:45:25;;;;;;;10.50;6.32;;;;;;;;;;5056101;28;20590;-65
2021/07/22 08:47:52;;;;;;;8.00;6.35;;;;;;;;;;5054716;28;20071;-67
2021/07/22 08:50:18;;;;;;;10.98;5.82;;;;;;;;;;5056001;28;20095;-67
2021/07/22 08:52:44;;;;;;;11.60;6.30;;;;;;;;;;5055917;28;20021;-66
2021/07/22 08:55:11;;;;;;;12.88;6.50;;;;;;;;;;5054609;28;20075;-66
2021/07/22 08:57:38;;;;;;;11.13;6.50;;;;;;;;;;5054377;28;20017;-65
2021/07/22 09:00:05;;;;;;;10.10;5.80;;;;;;;;;;5054428;28;20116;-65
2021/07/22 09:02:32;;;;;;;12.05;6.05;;;;;;;;;;5055593;28;20061;-67
2021/07/22 09:05:03;;;;;;;10.35;5.82;;;;;;;;;;5054443;28;20532;-65
2021/07/22 09:07:30;;;;;;;11.40;4.82;;;;;;;;;;5055670;28;20017;-67
2021/07/22 09:10:05;;;;;;;9.52;4.93;;;;;;;;;;5055554;28;20519;-67
2021/07/22 09:12:35;;;;;;;10.38;6.18;;;;;;;;;;5054180;28;20485;-66
2021/07/22 09:15:02;;;;;;;5.78;4.78;;;;;;;;;;5054172;28;20029;-67
2021/07/22 09:17:28;;;;;;;9.32;4.18;;;;;;;;;;5054344;28;20373;-67
2021/07/22 09:19:54;;;;;;;9.52;4.57;;;;;;;;;;5054976;28;20420;-66
2021/07/22 09:22:37;;;;;;;6.88;4.18;;;;;;;;;;5054880;28;20068;-66
2021/07/22 09:25:04;;;;;;;5.60;3.58;;;;;;;;;;5054013;28;20036;-68
2021/07/22 09:27:33;;;;;;;7.97;4.18;;;;;;;;;;5054655;28;20053;-66
2021/07/22 09:30:01;;;;;;;6.13;4.07;;;;;;;;;;5055247;28;20142;-67
2021/07/22 09:32:33;;;;;;;6.85;4.13;;;;;;;;;;5055156;28;20017;-66
2021/07/22 09:35:09;;;;;;;10.02;3.78;;;;;;;;;;5055123;28;20025;-67
2021/07/22 09:37:36;;;;;;;5.43;4.07;;;;;;;;;;5055091;28;20048;-66
2021/07/22 09:40:03;;;;;;;4.85;3.50;;;;;;;;;;5055065;28;20043;-67
2021/07/22 09:42:39;;;;;;;5.63;3.20;;;;;;;;;;5054926;28;20087;-67
2021/07/22 09:45:13;;;;;;;8.45;4.05;;;;;;;;;;5054730;28;20025;-67
2021/07/22 09:47:39;;;;;;;15.63;3.28;;;;;;;;;;5054621;28;20106;-68
2021/07/22 09:50:09;;;;;;;7.53;3.13;;;;;;;;;;5054642;28;20108;-66
2021/07/22 09:52:36;;;;;;;7.30;3.40;;;;;;;;;;5054721;28;20029;-65
2021/07/22 09:55:02;;;;;;;3.78;2.83;;;;;;;;;;5054773;28;20052;-66
2021/07/22 09:57:28;;;;;;;6.78;3.30;;;;;;;;;;5053314;28;20528;-66
2021/07/22 09:59:55;;;;;;;5.55;3.72;;;;;;;;;;5054574;28;20063;-65
2021/07/22 10:02:25;;;;;;;8.40;3.72;;;;;;;;;;5054449;28;20033;-66
2021/07/22 10:05:03;;;;;;;4.28;3.67;;;;;;;;;;5054536;28;20025;-66
2021/07/22 10:07:30;;;;;;;8.68;3.42;;;;;;;;;;5054535;28;20033;-67
2021/07/22 10:09:58;;;;;;;4.63;3.20;;;;;;;;;;5054391;28;20484;-68
2021/07/22 10:12:25;;;;;;;4.53;3.80;;;;;;;;;;5053993;28;20108;-68
2021/07/22 10:14:54;;;;;;;4.25;3.50;;;;;;;;;;5053091;28;20082;-67
2021/07/22 10:17:21;;;;;;;7.95;3.92;;;;;;;;;;5054359;28;20028;-67
2021/07/22 10:19:47;;;;;;;7.00;3.70;;;;;;;;;;5054557;28;20101;-68
2021/07/22 10:22:14;;;;;;;5.40;3.05;;;;;;;;;;5054439;28;20078;-66
2021/07/22 10:24:40;;;;;;;3.55;3.08;;;;;;;;;;5054194;28;20083;-65
2021/07/22 10:27:07;;;;;;;3.15;2.85;;;;;;;;;;5051370;28;20055;-67
2021/07/22 10:29:35;;;;;;;3.60;2.80;;;;;;;;;;5053759;28;20361;-68
2021/07/22 10:32:02;;;;;;;8.75;2.83;;;;;;;;;;5053999;28;20028;-66
2021/07/22 10:34:29;;;;;;;3.78;3.33;;;;;;;;;;5053943;28;20034;-68
2021/07/22 10:36:55;;;;;;;6.32;2.85;;;;;;;;;;5052601;28;20028;-70
2021/07/22 10:39:59;;;;;;;7.32;3.55;;;31.70;59.80;;;;;;5053526;28;20048;-68
2021/07/22 10:42:48;;;;;;;6.45;3.10;;;32.00;61.80;;;;;;5053675;28;20359;-67
2021/07/22 10:45:20;;;;;;;4.53;3.28;;;31.80;59.10;;;;;;5052598;28;20103;-66
2021/07/22 10:48:08;;;;;;;4.70;3.20;;;32.00;61.00;;;;;;5052682;28;20025;-65
2021/07/22 10:50:40;;;;;;;3.70;3.05;;;32.30;59.00;;;;;;5051754;28;20458;-65
2021/07/22 10:53:06;;;;;;;7.43;3.33;;;32.90;58.60;;;;;;5052936;28;20025;-69
2021/07/22 10:55:41;;;;;;;5.25;3.33;;;33.00;56.90;;;;;;5053892;28;20025;-65
2021/07/22 10:58:33;;;;;;;3.95;3.05;;;33.30;56.60;;;;;;5053507;28;20167;-68
2021/07/22 11:00:59;;;;;;;4.63;3.15;;;33.80;57.30;;;;;;5053212;28;20552;-65
2021/07/22 11:03:38;;;;;;;5.22;2.95;;;34.60;54.20;;;;;;5053518;28;20116;-67
2021/07/22 11:06:08;;;;;;;4.30;3.35;;;34.70;53.70;;;;;;5053500;28;20036;-67
2021/07/22 11:08:38;;;;;;;4.82;3.60;;;34.70;52.20;;;;;;5053695;28;20523;-67
2021/07/22 11:11:07;;;;;;;7.78;2.80;;;34.90;51.20;;;;;;5053282;28;20040;-68
2021/07/22 11:13:38;;;;;;;5.15;3.05;;;35.60;51.80;;;;;;5051939;28;20029;-66
2021/07/22 11:16:22;;;;;;;4.80;3.53;;;35.80;55.20;;;;;;5053354;28;20112;-67
2021/07/22 11:18:48;;;;;;;5.70;2.47;;;;;;;;;;5053276;28;20021;-66
2021/07/22 11:21:26;;;;;;;3.95;3.55;;;32.80;57.50;;;;;;5053091;28;20021;-68
2021/07/22 11:24:16;;;;;;;3.75;2.95;;;32.90;58.00;;;;;;5053132;28;20068;-67
2021/07/22 11:26:43;;;;;;;4.15;3.17;;;34.50;55.40;;;;;;5053188;28;20053;-66
2021/07/22 11:29:10;;;;;;;3.78;2.85;;;35.70;54.20;;;;;;5053408;28;20028;-65
2021/07/22 11:31:55;;;;;;;4.03;3.10;;;36.00;52.70;;;;;;5052023;28;20423;-69
2021/07/22 11:34:27;;;;;;;6.00;3.10;;;;;;;;;;5053084;28;20036;-65
2021/07/22 11:36:56;;;;;;;4.40;2.80;;;;;;;;;;5052994;28;20021;-66
2021/07/22 11:39:39;;;;;;;4.68;3.00;;;;;;;;;;5051685;28;20128;-70
2021/07/22 11:42:07;;;;;;;5.53;3.83;;;;;;;;;;5052385;28;20024;-68
2021/07/22 11:44:33;;;;;;;6.88;3.67;;;;;;;;;;5050991;28;20029;-67
2021/07/22 11:46:59;;;;;;;8.10;4.28;;;;;;;;;;5051333;28;20404;-68
2021/07/22 11:49:32;;;;;;;13.70;3.70;;;;;;;;;;5052792;28;20029;-69
2021/07/22 11:51:58;;;;;;;5.95;3.33;;;;;;;;;;5051569;28;20033;-66
2021/07/22 11:54:24;;;;;;;5.07;3.22;;;;;;;;;;5052729;28;20493;-68
2021/07/22 11:56:57;;;;;;;6.22;3.28;;;33.20;55.60;;;;;;5052770;28;20027;-68
2021/07/22 11:59:30;;;;;;;8.82;3.00;;;33.70;58.10;;;;;;5052351;28;20025;-67
2021/07/22 12:01:58;;;;;;;6.47;3.22;;;35.00;51.90;;;;;;5052888;28;20453;-68
2021/07/22 12:04:28;;;;;;;3.40;3.20;;;;;;;;;;5052728;28;20021;-70
2021/07/22 12:06:55;;;;;;;4.80;3.23;;;;;;;;;;5050767;28;20028;-67
2021/07/22 12:09:21;;;;;;;7.28;3.17;;;33.40;93.20;;;;;;5050912;28;20025;-68
2021/07/22 12:11:55;;;;;;;5.35;2.85;;;33.80;54.70;;;;;;5052384;28;20457;-69
2021/07/22 12:14:35;;;;;;;6.22;2.90;;;35.20;51.90;;;;;;5051156;28;20033;-68
2021/07/22 12:17:09;;;;;;;4.15;3.25;;;35.50;53.10;;;;;;5045989;28;20040;-69
2021/07/22 12:19:39;;;;;;;5.40;3.00;;;36.10;51.40;;;;;;5031922;28;20529;-67
2021/07/22 12:22:22;;;;;;;2.90;2.70;;;37.40;52.20;;;;;;5032342;28;20018;-69
2021/07/22 12:25:01;;;;;;;5.18;3.47;;;37.70;49.30;;;;;;5031001;28;20398;-68
2021/07/22 12:27:42;;;;;;;3.65;3.00;;;39.40;48.70;;;;;;5030648;28;20046;-68
2021/07/22 12:30:23;;;;;;;5.53;2.90;;;38.80;50.00;;;;;;5031056;28;20030;-71
2021/07/22 12:32:49;;;;;;;;;;;;;;;;;;5030648;28;20335;-69
2021/07/22 12:35:35;;;;;;;6.95;3.10;;;;;;;;;;5032368;28;20387;-68
2021/07/22 12:38:02;;;;;;;6.07;3.10;;;;;;;;;;5032080;28;20029;-68
2021/07/22 12:40:35;;;;;;;3.80;2.95;;;35.60;90.50;;;;;;5031141;28;20374;-70
2021/07/22 12:43:02;;;;;;;4.60;2.80;;;36.90;49.70;;;;;;5030673;28;20033;-70
2021/07/22 12:45:28;;;;;;;3.28;2.97;;;37.60;48.20;;;;;;5031170;28;20033;-71
2021/07/22 12:47:54;;;;;;;4.10;2.75;;;38.30;47.10;;;;;;5030917;28;20351;-71
2021/07/22 12:50:39;;;;;;;4.68;3.50;;;39.40;47.40;;;;;;5032673;28;20221;-69
2021/07/22 12:53:14;;;;;;;3.00;2.70;;;40.10;45.10;;;;;;5032929;28;20026;-74
2021/07/22 12:55:41;;;;;;;3.20;2.75;;;41.30;45.30;;;;;;5035455;28;20025;-70
2021/07/22 12:58:23;;;;;;;6.75;3.17;;;40.30;46.00;;;;;;5035468;28;20034;-67
2021/07/22 13:00:49;;;;;;;3.38;3.10;;;38.90;46.60;;;;;;5035906;28;20026;-69
2021/07/22 13:03:15;;;;;;;6.30;2.70;;;39.50;47.30;;;;;;5035754;28;20036;-69
2021/07/22 13:05:40;;;;;;;3.97;2.92;;;40.40;46.70;;;;;;5035163;28;20426;-70
2021/07/22 13:08:06;;;;;;;3.20;2.72;;;40.50;45.20;;;;;;5035763;28;20026;-70
2021/07/22 13:10:37;;;;;;;3.30;2.92;;;41.00;44.60;;;;;;5033527;28;20077;-70
2021/07/22 13:13:06;;;;;;;4.57;3.67;;;41.80;45.90;;;;;;5034794;28;20054;-68
2021/07/22 13:15:32;;;;;;;5.43;2.83;;;40.80;45.50;;;;;;5035374;28;20034;-69
2021/07/22 13:17:58;;;;;;;4.45;2.70;;;40.90;43.50;;;;;;5035551;28;20470;-68
2021/07/22 13:20:24;;;;;;;3.78;3.22;;;41.70;42.90;;;;;;5035710;28;20045;-67
2021/07/22 13:22:49;;;;;;;4.35;3.00;;;42.40;44.60;;;;;;5035587;28;20594;-68
2021/07/22 13:25:16;;;;;;;3.03;2.83;;;43.00;42.80;;;;;;5034116;28;20033;-70
2021/07/22 13:27:42;;;;;;;5.63;2.63;;;;;;;;;;5034977;28;20411;-70
2021/07/22 13:30:09;;;;;;;2.88;2.53;;;43.70;40.90;;;;;;5035377;28;20026;-68
2021/07/22 13:32:36;;;;;;;5.18;2.53;;;;;;;;;;5033978;28;20053;-69
2021/07/22 13:35:07;;;;;;;10.90;2.97;;;44.70;40.70;;;;;;5035264;28;20031;-68
2021/07/22 13:37:33;;;;;;;;;;;44.20;41.50;;;;;;5035337;28;20474;-69
2021/07/22 13:39:59;;;;;;;4.35;3.10;;;43.50;41.20;;;;;;5035114;28;19905;-68
2021/07/22 13:42:26;;;;;;;5.90;3.05;;;;;;;;;;5034916;28;20382;-69
2021/07/22 13:44:52;;;;;;;3.83;2.83;;;42.70;47.10;;;;;;5034910;28;20044;-69
2021/07/22 13:47:18;;;;;;;4.22;2.92;;;41.70;41.60;;;;;;5034706;28;20355;-69
2021/07/22 13:49:44;;;;;;;4.43;2.75;;;42.20;42.30;;;;;;5034847;28;20033;-67
2021/07/22 13:52:11;;;;;;;4.72;2.80;;;43.00;42.20;;;;;;5034819;28;20091;-68
2021/07/22 13:54:39;;;;;;;7.60;3.35;;;44.00;42.60;;;;;;5034697;28;20100;-68
2021/07/22 13:57:05;;;;;;;4.25;3.13;;;;;;;;;;5034816;28;20022;-69
2021/07/22 13:59:31;;;;;;;3.25;2.70;;;44.70;40.60;;;;;;5033271;28;20034;-70
2021/07/22 14:01:57;;;;;;;2.97;2.78;;;44.30;41.80;;;;;;5032869;28;20365;-66
2021/07/22 14:04:23;;;;;;;3.78;2.88;;;44.70;40.90;;;;;;5034182;28;20034;-66
2021/07/22 14:06:48;;;;;;;3.50;3.20;;;44.30;41.40;;;;;;5034202;28;20075;-65
2021/07/22 14:09:15;;;;;;;4.05;3.20;;;;;;;;;;5034561;28;20072;-66
2021/07/22 14:11:40;;;;;;;6.93;3.08;;;43.60;39.90;;;;;;5034421;28;20034;-65